sensor_id;sensor_type;location;lat;lon;timestamp;P1;durP1;ratioP1;P2;durP2;ratioP2
5349;SDS011;2697;42.144;24.794;2022-09-09T00:09:44;14.60;;;7.57;;
5349;SDS011;2697;42.144;24.794;2022-09-09T00:17:38;41.17;;;10.20;;
5349;SDS011;2697;42.144;24.794;2022-09-09T00:20:28;12.10;;;8.23;;
5349;SDS011;2697;42.144;24.794;2022-09-09T00:26:09;15.27;;;9.47;;
5349;SDS011;2697;42.144;24.794;2022-09-09T00:28:48;19.33;;;7.93;;
5349;SDS011;2697;42.144;24.794;2022-09-09T00:31:23;21.40;;;9.77;;
5349;SDS011;2697;42.144;24.794;2022-09-09T00:33:52;18.63;;;9.47;;
5349;SDS011;2697;42.144;24.794;2022-09-09T00:36:20;20.23;;;8.80;;
5349;SDS011;2697;42.144;24.794;2022-09-09T00:38:55;18.93;;;9.23;;
5349;SDS011;2697;42.144;24.794;2022-09-09T00:41:31;17.23;;;8.93;;
5349;SDS011;2697;42.144;24.794;2022-09-09T00:49:43;13.73;;;8.30;;
5349;SDS011;2697;42.144;24.794;2022-09-09T00:55:15;16.00;;;8.33;;
5349;SDS011;2697;42.144;24.794;2022-09-09T00:57:45;20.57;;;9.13;;
5349;SDS011;2697;42.144;24.794;2022-09-09T01:08:25;14.40;;;8.73;;
5349;SDS011;2697;42.144;24.794;2022-09-09T01:10:53;15.97;;;7.70;;
5349;SDS011;2697;42.144;24.794;2022-09-09T01:13:29;17.23;;;8.93;;
5349;SDS011;2697;42.144;24.794;2022-09-09T01:15:59;20.13;;;9.30;;
5349;SDS011;2697;42.144;24.794;2022-09-09T01:18:37;17.73;;;9.23;;
5349;SDS011;2697;42.144;24.794;2022-09-09T01:21:18;21.93;;;9.93;;
5349;SDS011;2697;42.144;24.794;2022-09-09T01:26:34;18.03;;;8.90;;
5349;SDS011;2697;42.144;24.794;2022-09-09T01:29:02;13.90;;;9.67;;
5349;SDS011;2697;42.144;24.794;2022-09-09T01:31:32;15.53;;;9.87;;
5349;SDS011;2697;42.144;24.794;2022-09-09T01:34:12;12.70;;;8.73;;
5349;SDS011;2697;42.144;24.794;2022-09-09T01:36:43;21.13;;;10.30;;
5349;SDS011;2697;42.144;24.794;2022-09-09T01:39:15;14.77;;;9.53;;
5349;SDS011;2697;42.144;24.794;2022-09-09T01:41:40;14.37;;;9.17;;
5349;SDS011;2697;42.144;24.794;2022-09-09T01:44:06;20.60;;;7.93;;
5349;SDS011;2697;42.144;24.794;2022-09-09T01:46:33;9.53;;;7.10;;
5349;SDS011;2697;42.144;24.794;2022-09-09T01:48:58;36.83;;;9.73;;
5349;SDS011;2697;42.144;24.794;2022-09-09T01:51:27;18.47;;;8.73;;
5349;SDS011;2697;42.144;24.794;2022-09-09T01:53:53;16.03;;;8.77;;
5349;SDS011;2697;42.144;24.794;2022-09-09T01:56:25;17.70;;;8.60;;
5349;SDS011;2697;42.144;24.794;2022-09-09T01:59:05;10.53;;;6.40;;
5349;SDS011;2697;42.144;24.794;2022-09-09T02:04:15;17.87;;;9.53;;
5349;SDS011;2697;42.144;24.794;2022-09-09T02:06:58;15.80;;;8.23;;
5349;SDS011;2697;42.144;24.794;2022-09-09T02:09:25;31.13;;;12.10;;
5349;SDS011;2697;42.144;24.794;2022-09-09T02:12:08;16.80;;;8.60;;
5349;SDS011;2697;42.144;24.794;2022-09-09T02:14:40;13.67;;;9.13;;
5349;SDS011;2697;42.144;24.794;2022-09-09T02:17:08;16.33;;;9.70;;
5349;SDS011;2697;42.144;24.794;2022-09-09T02:19:40;13.80;;;9.87;;
5349;SDS011;2697;42.144;24.794;2022-09-09T02:22:11;19.23;;;10.57;;
5349;SDS011;2697;42.144;24.794;2022-09-09T02:24:37;15.70;;;9.70;;
5349;SDS011;2697;42.144;24.794;2022-09-09T02:27:06;21.20;;;9.67;;
5349;SDS011;2697;42.144;24.794;2022-09-09T02:29:39;16.33;;;10.20;;
5349;SDS011;2697;42.144;24.794;2022-09-09T02:32:07;20.67;;;12.27;;
5349;SDS011;2697;42.144;24.794;2022-09-09T02:34:38;24.40;;;10.70;;
5349;SDS011;2697;42.144;24.794;2022-09-09T02:37:08;16.27;;;10.30;;
5349;SDS011;2697;42.144;24.794;2022-09-09T02:39:35;19.20;;;11.10;;
5349;SDS011;2697;42.144;24.794;2022-09-09T02:42:01;14.73;;;9.73;;
5349;SDS011;2697;42.144;24.794;2022-09-09T02:44:29;14.37;;;9.80;;
5349;SDS011;2697;42.144;24.794;2022-09-09T02:52:15;17.80;;;10.60;;
5349;SDS011;2697;42.144;24.794;2022-09-09T02:54:44;29.03;;;12.50;;
5349;SDS011;2697;42.144;24.794;2022-09-09T02:59:37;24.43;;;14.27;;
5349;SDS011;2697;42.144;24.794;2022-09-09T03:02:03;24.83;;;12.90;;
5349;SDS011;2697;42.144;24.794;2022-09-09T03:04:29;21.50;;;14.90;;
5349;SDS011;2697;42.144;24.794;2022-09-09T03:06:56;19.23;;;13.30;;
5349;SDS011;2697;42.144;24.794;2022-09-09T03:09:23;24.07;;;13.37;;
5349;SDS011;2697;42.144;24.794;2022-09-09T03:11:48;37.73;;;14.23;;
5349;SDS011;2697;42.144;24.794;2022-09-09T03:14:15;31.27;;;14.30;;
5349;SDS011;2697;42.144;24.794;2022-09-09T03:16:41;13.57;;;9.67;;
5349;SDS011;2697;42.144;24.794;2022-09-09T03:19:08;17.43;;;10.83;;
5349;SDS011;2697;42.144;24.794;2022-09-09T03:21:33;33.67;;;10.80;;
5349;SDS011;2697;42.144;24.794;2022-09-09T03:23:59;23.10;;;10.30;;
5349;SDS011;2697;42.144;24.794;2022-09-09T03:26:24;21.17;;;9.17;;
5349;SDS011;2697;42.144;24.794;2022-09-09T03:28:50;12.13;;;8.40;;
5349;SDS011;2697;42.144;24.794;2022-09-09T03:31:16;10.47;;;7.60;;
5349;SDS011;2697;42.144;24.794;2022-09-09T03:33:43;14.27;;;7.10;;
5349;SDS011;2697;42.144;24.794;2022-09-09T03:36:08;17.63;;;8.80;;
5349;SDS011;2697;42.144;24.794;2022-09-09T03:38:34;9.87;;;5.73;;
5349;SDS011;2697;42.144;24.794;2022-09-09T03:40:59;16.23;;;7.37;;
5349;SDS011;2697;42.144;24.794;2022-09-09T03:43:27;14.90;;;8.27;;
5349;SDS011;2697;42.144;24.794;2022-09-09T03:45:53;17.70;;;9.30;;
5349;SDS011;2697;42.144;24.794;2022-09-09T03:48:21;18.43;;;10.60;;
5349;SDS011;2697;42.144;24.794;2022-09-09T03:50:51;19.43;;;10.00;;
5349;SDS011;2697;42.144;24.794;2022-09-09T03:53:18;17.20;;;9.60;;
5349;SDS011;2697;42.144;24.794;2022-09-09T03:55:49;16.33;;;8.20;;
5349;SDS011;2697;42.144;24.794;2022-09-09T03:58:18;12.20;;;8.40;;
5349;SDS011;2697;42.144;24.794;2022-09-09T04:00:56;19.40;;;9.50;;
5349;SDS011;2697;42.144;24.794;2022-09-09T04:03:23;11.33;;;7.93;;
5349;SDS011;2697;42.144;24.794;2022-09-09T04:05:53;11.47;;;7.50;;
5349;SDS011;2697;42.144;24.794;2022-09-09T04:08:20;18.03;;;8.30;;
5349;SDS011;2697;42.144;24.794;2022-09-09T04:10:46;35.57;;;7.77;;
5349;SDS011;2697;42.144;24.794;2022-09-09T04:13:13;14.73;;;7.00;;
5349;SDS011;2697;42.144;24.794;2022-09-09T04:15:41;11.37;;;6.93;;
5349;SDS011;2697;42.144;24.794;2022-09-09T04:18:07;14.13;;;6.33;;
5349;SDS011;2697;42.144;24.794;2022-09-09T04:20:33;13.70;;;6.50;;
5349;SDS011;2697;42.144;24.794;2022-09-09T04:22:58;11.70;;;6.20;;
5349;SDS011;2697;42.144;24.794;2022-09-09T04:25:24;14.33;;;5.93;;
5349;SDS011;2697;42.144;24.794;2022-09-09T04:27:53;8.70;;;5.53;;
5349;SDS011;2697;42.144;24.794;2022-09-09T04:30:23;15.07;;;5.90;;
5349;SDS011;2697;42.144;24.794;2022-09-09T04:32:49;14.50;;;6.90;;
5349;SDS011;2697;42.144;24.794;2022-09-09T04:35:14;10.60;;;5.13;;
5349;SDS011;2697;42.144;24.794;2022-09-09T04:37:40;14.90;;;5.17;;
5349;SDS011;2697;42.144;24.794;2022-09-09T04:40:06;11.50;;;5.00;;
5349;SDS011;2697;42.144;24.794;2022-09-09T04:42:37;14.93;;;5.50;;
5349;SDS011;2697;42.144;24.794;2022-09-09T04:45:03;17.63;;;6.00;;
5349;SDS011;2697;42.144;24.794;2022-09-09T04:47:29;11.60;;;5.70;;
5349;SDS011;2697;42.144;24.794;2022-09-09T04:49:54;10.33;;;5.60;;
5349;SDS011;2697;42.144;24.794;2022-09-09T04:52:20;13.13;;;4.70;;
5349;SDS011;2697;42.144;24.794;2022-09-09T04:54:46;10.87;;;4.37;;
5349;SDS011;2697;42.144;24.794;2022-09-09T04:57:11;16.73;;;5.23;;
5349;SDS011;2697;42.144;24.794;2022-09-09T04:59:37;7.30;;;4.70;;
5349;SDS011;2697;42.144;24.794;2022-09-09T05:02:02;9.10;;;5.20;;
5349;SDS011;2697;42.144;24.794;2022-09-09T05:04:28;11.17;;;5.50;;
5349;SDS011;2697;42.144;24.794;2022-09-09T05:06:54;23.57;;;6.37;;
5349;SDS011;2697;42.144;24.794;2022-09-09T05:09:21;18.53;;;7.30;;
5349;SDS011;2697;42.144;24.794;2022-09-09T05:11:46;12.00;;;6.73;;
5349;SDS011;2697;42.144;24.794;2022-09-09T05:14:11;17.70;;;8.10;;
5349;SDS011;2697;42.144;24.794;2022-09-09T05:16:37;18.33;;;8.17;;
5349;SDS011;2697;42.144;24.794;2022-09-09T05:19:02;18.07;;;8.97;;
5349;SDS011;2697;42.144;24.794;2022-09-09T05:21:28;25.10;;;10.20;;
5349;SDS011;2697;42.144;24.794;2022-09-09T05:23:55;19.87;;;10.47;;
5349;SDS011;2697;42.144;24.794;2022-09-09T05:26:22;18.80;;;10.47;;
5349;SDS011;2697;42.144;24.794;2022-09-09T05:28:48;24.07;;;12.33;;
5349;SDS011;2697;42.144;24.794;2022-09-09T05:31:14;24.67;;;10.80;;
5349;SDS011;2697;42.144;24.794;2022-09-09T05:33:41;12.60;;;7.50;;
5349;SDS011;2697;42.144;24.794;2022-09-09T05:38:38;37.47;;;9.00;;
5349;SDS011;2697;42.144;24.794;2022-09-09T05:41:04;49.73;;;9.33;;
5349;SDS011;2697;42.144;24.794;2022-09-09T05:43:30;28.90;;;10.45;;
5349;SDS011;2697;42.144;24.794;2022-09-09T05:46:10;20.67;;;9.25;;
5349;SDS011;2697;42.144;24.794;2022-09-09T05:48:40;38.00;;;9.83;;
5349;SDS011;2697;42.144;24.794;2022-09-09T05:51:11;30.50;;;9.95;;
5349;SDS011;2697;42.144;24.794;2022-09-09T05:53:40;14.88;;;9.52;;
5349;SDS011;2697;42.144;24.794;2022-09-09T05:56:10;27.27;;;9.50;;
5349;SDS011;2697;42.144;24.794;2022-09-09T05:58:39;28.58;;;9.32;;
5349;SDS011;2697;42.144;24.794;2022-09-09T06:01:06;24.20;;;8.95;;
5349;SDS011;2697;42.144;24.794;2022-09-09T06:03:35;17.65;;;8.43;;
5349;SDS011;2697;42.144;24.794;2022-09-09T06:06:03;14.68;;;5.45;;
5349;SDS011;2697;42.144;24.794;2022-09-09T06:08:31;11.27;;;5.05;;
5349;SDS011;2697;42.144;24.794;2022-09-09T06:11:04;15.48;;;6.75;;
5349;SDS011;2697;42.144;24.794;2022-09-09T06:13:34;25.42;;;5.50;;
5349;SDS011;2697;42.144;24.794;2022-09-09T06:16:02;13.23;;;5.60;;
5349;SDS011;2697;42.144;24.794;2022-09-09T06:18:28;19.48;;;6.25;;
5349;SDS011;2697;42.144;24.794;2022-09-09T06:23:19;11.90;;;5.75;;
5349;SDS011;2697;42.144;24.794;2022-09-09T06:25:45;6.15;;;4.07;;
5349;SDS011;2697;42.144;24.794;2022-09-09T06:28:11;10.18;;;4.80;;
5349;SDS011;2697;42.144;24.794;2022-09-09T06:30:36;8.05;;;4.88;;
5349;SDS011;2697;42.144;24.794;2022-09-09T06:33:01;7.23;;;3.83;;
5349;SDS011;2697;42.144;24.794;2022-09-09T06:35:27;9.67;;;5.47;;
5349;SDS011;2697;42.144;24.794;2022-09-09T06:37:53;8.50;;;5.30;;
5349;SDS011;2697;42.144;24.794;2022-09-09T06:40:19;6.30;;;4.93;;
5349;SDS011;2697;42.144;24.794;2022-09-09T06:42:44;18.33;;;6.07;;
5349;SDS011;2697;42.144;24.794;2022-09-09T06:45:09;10.00;;;4.50;;
5349;SDS011;2697;42.144;24.794;2022-09-09T06:47:35;18.70;;;6.27;;
5349;SDS011;2697;42.144;24.794;2022-09-09T06:50:01;12.43;;;6.70;;
5349;SDS011;2697;42.144;24.794;2022-09-09T06:52:26;26.60;;;7.57;;
5349;SDS011;2697;42.144;24.794;2022-09-09T06:54:52;17.60;;;5.30;;
5349;SDS011;2697;42.144;24.794;2022-09-09T06:57:18;34.90;;;6.50;;
5349;SDS011;2697;42.144;24.794;2022-09-09T06:59:44;11.50;;;5.70;;
5349;SDS011;2697;42.144;24.794;2022-09-09T07:02:09;20.97;;;6.53;;
5349;SDS011;2697;42.144;24.794;2022-09-09T07:04:35;16.20;;;6.17;;
5349;SDS011;2697;42.144;24.794;2022-09-09T07:07:02;15.70;;;5.87;;
5349;SDS011;2697;42.144;24.794;2022-09-09T07:09:27;11.10;;;5.73;;
5349;SDS011;2697;42.144;24.794;2022-09-09T07:11:54;13.57;;;5.43;;
5349;SDS011;2697;42.144;24.794;2022-09-09T07:14:19;21.20;;;6.73;;
5349;SDS011;2697;42.144;24.794;2022-09-09T07:16:45;10.30;;;5.70;;
5349;SDS011;2697;42.144;24.794;2022-09-09T07:19:11;13.93;;;6.63;;
5349;SDS011;2697;42.144;24.794;2022-09-09T07:21:37;10.73;;;5.80;;
5349;SDS011;2697;42.144;24.794;2022-09-09T07:24:05;16.27;;;6.50;;
5349;SDS011;2697;42.144;24.794;2022-09-09T07:26:32;31.07;;;6.67;;
5349;SDS011;2697;42.144;24.794;2022-09-09T07:28:58;12.90;;;6.10;;
5349;SDS011;2697;42.144;24.794;2022-09-09T07:33:55;7.77;;;6.67;;
5349;SDS011;2697;42.144;24.794;2022-09-09T07:36:22;10.83;;;7.07;;
5349;SDS011;2697;42.144;24.794;2022-09-09T07:38:50;11.60;;;5.97;;
5349;SDS011;2697;42.144;24.794;2022-09-09T07:41:19;9.20;;;6.70;;
5349;SDS011;2697;42.144;24.794;2022-09-09T07:43:53;20.10;;;6.93;;
5349;SDS011;2697;42.144;24.794;2022-09-09T07:46:19;13.70;;;8.07;;
5349;SDS011;2697;42.144;24.794;2022-09-09T07:48:46;13.07;;;6.23;;
5349;SDS011;2697;42.144;24.794;2022-09-09T07:51:17;22.70;;;7.53;;
5349;SDS011;2697;42.144;24.794;2022-09-09T07:53:46;12.77;;;6.90;;
5349;SDS011;2697;42.144;24.794;2022-09-09T07:56:14;13.10;;;6.70;;
5349;SDS011;2697;42.144;24.794;2022-09-09T07:58:42;16.43;;;7.07;;
5349;SDS011;2697;42.144;24.794;2022-09-09T08:01:10;14.37;;;7.50;;
5349;SDS011;2697;42.144;24.794;2022-09-09T08:03:41;12.87;;;5.70;;
5349;SDS011;2697;42.144;24.794;2022-09-09T08:06:08;14.50;;;5.80;;
5349;SDS011;2697;42.144;24.794;2022-09-09T08:08:34;11.97;;;7.00;;
5349;SDS011;2697;42.144;24.794;2022-09-09T08:11:04;10.73;;;6.30;;
5349;SDS011;2697;42.144;24.794;2022-09-09T08:13:30;17.43;;;6.17;;
5349;SDS011;2697;42.144;24.794;2022-09-09T08:16:03;15.73;;;6.07;;
5349;SDS011;2697;42.144;24.794;2022-09-09T08:18:29;9.70;;;5.37;;
5349;SDS011;2697;42.144;24.794;2022-09-09T08:20:55;10.70;;;5.90;;
5349;SDS011;2697;42.144;24.794;2022-09-09T08:23:20;12.13;;;5.30;;
5349;SDS011;2697;42.144;24.794;2022-09-09T08:25:46;10.10;;;5.40;;
5349;SDS011;2697;42.144;24.794;2022-09-09T08:28:13;8.30;;;5.00;;
5349;SDS011;2697;42.144;24.794;2022-09-09T08:30:39;13.23;;;5.47;;
5349;SDS011;2697;42.144;24.794;2022-09-09T08:33:04;21.73;;;5.83;;
5349;SDS011;2697;42.144;24.794;2022-09-09T08:35:30;11.20;;;6.40;;
5349;SDS011;2697;42.144;24.794;2022-09-09T08:37:57;13.97;;;6.70;;
5349;SDS011;2697;42.144;24.794;2022-09-09T08:40:25;15.53;;;6.17;;
5349;SDS011;2697;42.144;24.794;2022-09-09T08:42:58;12.67;;;6.97;;
5349;SDS011;2697;42.144;24.794;2022-09-09T08:45:29;8.93;;;5.17;;
5349;SDS011;2697;42.144;24.794;2022-09-09T08:50:50;16.90;;;5.90;;
5349;SDS011;2697;42.144;24.794;2022-09-09T08:53:23;8.37;;;5.40;;
5349;SDS011;2697;42.144;24.794;2022-09-09T08:55:57;11.93;;;4.77;;
5349;SDS011;2697;42.144;24.794;2022-09-09T08:58:25;8.40;;;5.80;;
5349;SDS011;2697;42.144;24.794;2022-09-09T09:11:51;9.90;;;5.63;;
5349;SDS011;2697;42.144;24.794;2022-09-09T09:14:23;10.27;;;5.27;;
5349;SDS011;2697;42.144;24.794;2022-09-09T09:19:24;18.70;;;7.67;;
5349;SDS011;2697;42.144;24.794;2022-09-09T09:21:54;12.13;;;5.67;;
5349;SDS011;2697;42.144;24.794;2022-09-09T09:29:54;14.37;;;5.73;;
5349;SDS011;2697;42.144;24.794;2022-09-09T09:32:23;19.70;;;5.57;;
5349;SDS011;2697;42.144;24.794;2022-09-09T09:34:51;7.40;;;5.70;;
5349;SDS011;2697;42.144;24.794;2022-09-09T09:37:28;6.80;;;4.53;;
5349;SDS011;2697;42.144;24.794;2022-09-09T09:39:56;8.23;;;5.43;;
5349;SDS011;2697;42.144;24.794;2022-09-09T09:42:34;10.40;;;5.30;;
5349;SDS011;2697;42.144;24.794;2022-09-09T09:46:00;10.37;;;5.33;;
5349;SDS011;2697;42.144;24.794;2022-09-09T09:48:01;8.90;;;5.60;;
5349;SDS011;2697;42.144;24.794;2022-09-09T09:50:31;17.63;;;5.37;;
5349;SDS011;2697;42.144;24.794;2022-09-09T09:53:02;16.53;;;6.63;;
5349;SDS011;2697;42.144;24.794;2022-09-09T09:55:30;15.80;;;6.63;;
5349;SDS011;2697;42.144;24.794;2022-09-09T09:58:05;27.80;;;6.43;;
5349;SDS011;2697;42.144;24.794;2022-09-09T10:00:32;11.53;;;6.50;;
5349;SDS011;2697;42.144;24.794;2022-09-09T10:03:00;8.63;;;6.90;;
5349;SDS011;2697;42.144;24.794;2022-09-09T10:05:27;9.77;;;5.67;;
5349;SDS011;2697;42.144;24.794;2022-09-09T10:08:12;27.57;;;7.50;;
5349;SDS011;2697;42.144;24.794;2022-09-09T10:11:02;6.53;;;5.30;;
5349;SDS011;2697;42.144;24.794;2022-09-09T10:16:45;10.90;;;6.43;;
5349;SDS011;2697;42.144;24.794;2022-09-09T10:19:34;14.03;;;7.00;;
5349;SDS011;2697;42.144;24.794;2022-09-09T10:22:23;7.30;;;5.27;;
5349;SDS011;2697;42.144;24.794;2022-09-09T10:33:09;9.33;;;6.20;;
5349;SDS011;2697;42.144;24.794;2022-09-09T10:35:46;9.70;;;5.80;;
5349;SDS011;2697;42.144;24.794;2022-09-09T10:38:45;6.93;;;5.70;;
5349;SDS011;2697;42.144;24.794;2022-09-09T10:41:16;9.90;;;5.70;;
5349;SDS011;2697;42.144;24.794;2022-09-09T10:44:46;9.77;;;5.70;;
5349;SDS011;2697;42.144;24.794;2022-09-09T10:52:46;21.03;;;5.30;;
5349;SDS011;2697;42.144;24.794;2022-09-09T10:55:33;14.37;;;5.17;;
5349;SDS011;2697;42.144;24.794;2022-09-09T10:58:03;8.53;;;4.67;;
5349;SDS011;2697;42.144;24.794;2022-09-09T11:03:20;6.27;;;4.50;;
5349;SDS011;2697;42.144;24.794;2022-09-09T11:05:51;8.73;;;5.07;;
5349;SDS011;2697;42.144;24.794;2022-09-09T11:08:23;7.70;;;4.87;;
5349;SDS011;2697;42.144;24.794;2022-09-09T11:21:51;11.20;;;4.60;;
5349;SDS011;2697;42.144;24.794;2022-09-09T11:24:21;14.97;;;3.90;;
5349;SDS011;2697;42.144;24.794;2022-09-09T11:26:58;5.10;;;3.47;;
5349;SDS011;2697;42.144;24.794;2022-09-09T11:40:33;6.10;;;4.00;;
5349;SDS011;2697;42.144;24.794;2022-09-09T11:43:02;5.13;;;3.83;;
5349;SDS011;2697;42.144;24.794;2022-09-09T11:45:29;11.57;;;4.30;;
5349;SDS011;2697;42.144;24.794;2022-09-09T11:47:56;5.10;;;4.60;;
5349;SDS011;2697;42.144;24.794;2022-09-09T11:53:03;10.73;;;3.93;;
5349;SDS011;2697;42.144;24.794;2022-09-09T11:58:42;7.83;;;4.50;;
5349;SDS011;2697;42.144;24.794;2022-09-09T12:01:43;5.53;;;4.37;;
5349;SDS011;2697;42.144;24.794;2022-09-09T12:06:33;7.17;;;4.63;;
5349;SDS011;2697;42.144;24.794;2022-09-09T12:20:36;7.13;;;3.80;;
5349;SDS011;2697;42.144;24.794;2022-09-09T12:25:53;14.43;;;4.63;;
5349;SDS011;2697;42.144;24.794;2022-09-09T12:31:07;8.33;;;4.30;;
5349;SDS011;2697;42.144;24.794;2022-09-09T12:33:42;7.10;;;4.60;;
5349;SDS011;2697;42.144;24.794;2022-09-09T12:36:24;7.80;;;4.63;;
5349;SDS011;2697;42.144;24.794;2022-09-09T12:38:55;10.57;;;4.07;;
5349;SDS011;2697;42.144;24.794;2022-09-09T12:41:25;8.00;;;3.77;;
5349;SDS011;2697;42.144;24.794;2022-09-09T12:44:03;11.57;;;4.20;;
5349;SDS011;2697;42.144;24.794;2022-09-09T12:46:35;6.63;;;4.70;;
5349;SDS011;2697;42.144;24.794;2022-09-09T12:49:04;10.80;;;4.80;;
5349;SDS011;2697;42.144;24.794;2022-09-09T12:51:31;9.10;;;3.60;;
5349;SDS011;2697;42.144;24.794;2022-09-09T12:53:58;6.80;;;4.97;;
5349;SDS011;2697;42.144;24.794;2022-09-09T12:56:26;12.73;;;4.50;;
5349;SDS011;2697;42.144;24.794;2022-09-09T12:58:55;7.80;;;4.30;;
5349;SDS011;2697;42.144;24.794;2022-09-09T13:01:23;5.65;;;5.15;;
5349;SDS011;2697;42.144;24.794;2022-09-09T13:03:57;4.43;;;4.07;;
5349;SDS011;2697;42.144;24.794;2022-09-09T13:06:27;8.68;;;5.28;;
5349;SDS011;2697;42.144;24.794;2022-09-09T13:08:54;7.82;;;4.53;;
5349;SDS011;2697;42.144;24.794;2022-09-09T13:11:24;5.15;;;4.30;;
5349;SDS011;2697;42.144;24.794;2022-09-09T13:13:54;7.18;;;4.25;;
5349;SDS011;2697;42.144;24.794;2022-09-09T13:18:46;16.33;;;4.80;;
5349;SDS011;2697;42.144;24.794;2022-09-09T13:21:12;7.10;;;4.50;;
5349;SDS011;2697;42.144;24.794;2022-09-09T13:23:38;17.13;;;4.60;;
5349;SDS011;2697;42.144;24.794;2022-09-09T13:26:05;9.48;;;4.15;;
5349;SDS011;2697;42.144;24.794;2022-09-09T13:28:43;15.00;;;5.10;;
5349;SDS011;2697;42.144;24.794;2022-09-09T13:31:21;16.30;;;5.00;;
5349;SDS011;2697;42.144;24.794;2022-09-09T13:33:54;9.10;;;4.47;;
5349;SDS011;2697;42.144;24.794;2022-09-09T13:36:32;5.90;;;4.40;;
5349;SDS011;2697;42.144;24.794;2022-09-09T13:39:00;32.40;;;4.80;;
5349;SDS011;2697;42.144;24.794;2022-09-09T13:41:43;6.43;;;4.60;;
5349;SDS011;2697;42.144;24.794;2022-09-09T13:44:23;9.67;;;4.23;;
5349;SDS011;2697;42.144;24.794;2022-09-09T13:47:05;8.20;;;4.83;;
5349;SDS011;2697;42.144;24.794;2022-09-09T13:49:42;10.83;;;4.13;;
5349;SDS011;2697;42.144;24.794;2022-09-09T13:52:11;14.03;;;4.07;;
5349;SDS011;2697;42.144;24.794;2022-09-09T13:54:42;10.93;;;4.93;;
5349;SDS011;2697;42.144;24.794;2022-09-09T13:57:21;5.73;;;5.13;;
5349;SDS011;2697;42.144;24.794;2022-09-09T13:59:48;9.53;;;4.23;;
5349;SDS011;2697;42.144;24.794;2022-09-09T14:02:14;12.73;;;5.43;;
5349;SDS011;2697;42.144;24.794;2022-09-09T14:04:41;12.87;;;5.43;;
5349;SDS011;2697;42.144;24.794;2022-09-09T14:07:14;12.53;;;6.90;;
5349;SDS011;2697;42.144;24.794;2022-09-09T14:09:41;10.73;;;6.00;;
5349;SDS011;2697;42.144;24.794;2022-09-09T14:12:13;10.37;;;5.50;;
5349;SDS011;2697;42.144;24.794;2022-09-09T14:14:40;19.80;;;7.93;;
5349;SDS011;2697;42.144;24.794;2022-09-09T14:17:07;10.90;;;6.33;;
5349;SDS011;2697;42.144;24.794;2022-09-09T14:19:33;9.47;;;5.03;;
5349;SDS011;2697;42.144;24.794;2022-09-09T14:21:58;14.70;;;5.50;;
5349;SDS011;2697;42.144;24.794;2022-09-09T14:24:24;10.77;;;5.83;;
5349;SDS011;2697;42.144;24.794;2022-09-09T14:26:50;6.90;;;5.17;;
5349;SDS011;2697;42.144;24.794;2022-09-09T14:29:15;10.03;;;5.13;;
5349;SDS011;2697;42.144;24.794;2022-09-09T14:31:41;17.80;;;5.20;;
5349;SDS011;2697;42.144;24.794;2022-09-09T14:34:06;12.27;;;5.90;;
5349;SDS011;2697;42.144;24.794;2022-09-09T14:36:32;8.00;;;5.80;;
5349;SDS011;2697;42.144;24.794;2022-09-09T14:38:58;19.00;;;6.40;;
5349;SDS011;2697;42.144;24.794;2022-09-09T14:41:23;19.93;;;7.20;;
5349;SDS011;2697;42.144;24.794;2022-09-09T14:43:50;15.63;;;5.10;;
5349;SDS011;2697;42.144;24.794;2022-09-09T14:46:17;6.67;;;5.37;;
5349;SDS011;2697;42.144;24.794;2022-09-09T14:48:44;30.30;;;6.93;;
5349;SDS011;2697;42.144;24.794;2022-09-09T14:53:44;10.47;;;6.10;;
5349;SDS011;2697;42.144;24.794;2022-09-09T14:56:11;17.73;;;6.00;;
5349;SDS011;2697;42.144;24.794;2022-09-09T14:58:40;16.43;;;5.93;;
5349;SDS011;2697;42.144;24.794;2022-09-09T15:01:08;17.77;;;5.87;;
5349;SDS011;2697;42.144;24.794;2022-09-09T15:03:35;16.53;;;5.80;;
5349;SDS011;2697;42.144;24.794;2022-09-09T15:06:05;17.63;;;6.00;;
5349;SDS011;2697;42.144;24.794;2022-09-09T15:08:33;11.50;;;5.80;;
5349;SDS011;2697;42.144;24.794;2022-09-09T15:11:00;7.37;;;4.90;;
5349;SDS011;2697;42.144;24.794;2022-09-09T15:13:27;8.13;;;4.80;;
5349;SDS011;2697;42.144;24.794;2022-09-09T15:15:52;12.10;;;5.53;;
5349;SDS011;2697;42.144;24.794;2022-09-09T15:18:19;12.40;;;5.90;;
5349;SDS011;2697;42.144;24.794;2022-09-09T15:20:45;19.53;;;6.00;;
5349;SDS011;2697;42.144;24.794;2022-09-09T15:23:11;15.67;;;6.17;;
5349;SDS011;2697;42.144;24.794;2022-09-09T15:25:37;14.80;;;5.80;;
5349;SDS011;2697;42.144;24.794;2022-09-09T15:28:02;14.03;;;6.93;;
5349;SDS011;2697;42.144;24.794;2022-09-09T15:30:27;12.33;;;6.20;;
5349;SDS011;2697;42.144;24.794;2022-09-09T15:32:53;22.37;;;6.67;;
5349;SDS011;2697;42.144;24.794;2022-09-09T15:35:19;12.53;;;7.80;;
5349;SDS011;2697;42.144;24.794;2022-09-09T15:37:45;41.20;;;7.70;;
5349;SDS011;2697;42.144;24.794;2022-09-09T15:40:10;21.70;;;6.20;;
5349;SDS011;2697;42.144;24.794;2022-09-09T15:42:36;21.97;;;6.80;;
5349;SDS011;2697;42.144;24.794;2022-09-09T15:45:02;9.13;;;6.07;;
5349;SDS011;2697;42.144;24.794;2022-09-09T15:47:27;22.93;;;7.10;;
5349;SDS011;2697;42.144;24.794;2022-09-09T15:49:53;13.83;;;6.20;;
5349;SDS011;2697;42.144;24.794;2022-09-09T15:52:18;9.97;;;6.43;;
5349;SDS011;2697;42.144;24.794;2022-09-09T15:54:44;8.50;;;6.07;;
5349;SDS011;2697;42.144;24.794;2022-09-09T15:57:11;14.93;;;7.10;;
5349;SDS011;2697;42.144;24.794;2022-09-09T15:59:38;19.23;;;6.50;;
5349;SDS011;2697;42.144;24.794;2022-09-09T16:02:03;17.10;;;6.87;;
5349;SDS011;2697;42.144;24.794;2022-09-09T16:04:30;10.17;;;5.77;;
5349;SDS011;2697;42.144;24.794;2022-09-09T16:06:57;18.70;;;6.33;;
5349;SDS011;2697;42.144;24.794;2022-09-09T16:09:24;15.53;;;6.83;;
5349;SDS011;2697;42.144;24.794;2022-09-09T16:11:51;10.30;;;5.50;;
5349;SDS011;2697;42.144;24.794;2022-09-09T16:14:18;12.23;;;5.47;;
5349;SDS011;2697;42.144;24.794;2022-09-09T16:16:43;9.17;;;4.90;;
5349;SDS011;2697;42.144;24.794;2022-09-09T16:19:10;11.00;;;5.50;;
5349;SDS011;2697;42.144;24.794;2022-09-09T16:21:44;15.47;;;6.23;;
5349;SDS011;2697;42.144;24.794;2022-09-09T16:24:12;8.23;;;4.80;;
5349;SDS011;2697;42.144;24.794;2022-09-09T16:26:40;12.20;;;6.03;;
5349;SDS011;2697;42.144;24.794;2022-09-09T16:29:10;20.13;;;5.90;;
5349;SDS011;2697;42.144;24.794;2022-09-09T16:31:36;16.20;;;5.77;;
5349;SDS011;2697;42.144;24.794;2022-09-09T16:34:02;17.50;;;6.53;;
5349;SDS011;2697;42.144;24.794;2022-09-09T16:36:29;20.13;;;6.27;;
5349;SDS011;2697;42.144;24.794;2022-09-09T16:39:00;12.60;;;5.77;;
5349;SDS011;2697;42.144;24.794;2022-09-09T16:41:30;17.53;;;9.30;;
5349;SDS011;2697;42.144;24.794;2022-09-09T16:46:24;22.30;;;8.77;;
5349;SDS011;2697;42.144;24.794;2022-09-09T16:48:50;22.50;;;8.60;;
5349;SDS011;2697;42.144;24.794;2022-09-09T16:51:17;12.13;;;6.90;;
5349;SDS011;2697;42.144;24.794;2022-09-09T16:53:51;16.23;;;6.80;;
5349;SDS011;2697;42.144;24.794;2022-09-09T16:56:21;15.90;;;6.30;;
5349;SDS011;2697;42.144;24.794;2022-09-09T16:58:50;10.53;;;5.27;;
5349;SDS011;2697;42.144;24.794;2022-09-09T17:01:19;19.33;;;5.90;;
5349;SDS011;2697;42.144;24.794;2022-09-09T17:03:44;13.17;;;6.43;;
5349;SDS011;2697;42.144;24.794;2022-09-09T17:06:10;10.90;;;5.83;;
5349;SDS011;2697;42.144;24.794;2022-09-09T17:08:37;11.07;;;6.23;;
5349;SDS011;2697;42.144;24.794;2022-09-09T17:11:04;18.17;;;7.70;;
5349;SDS011;2697;42.144;24.794;2022-09-09T17:13:38;19.27;;;8.43;;
5349;SDS011;2697;42.144;24.794;2022-09-09T17:16:04;20.90;;;7.87;;
5349;SDS011;2697;42.144;24.794;2022-09-09T17:18:30;12.33;;;6.40;;
5349;SDS011;2697;42.144;24.794;2022-09-09T17:20:56;17.50;;;8.10;;
5349;SDS011;2697;42.144;24.794;2022-09-09T17:23:31;14.57;;;6.53;;
5349;SDS011;2697;42.144;24.794;2022-09-09T17:25:58;19.60;;;8.83;;
5349;SDS011;2697;42.144;24.794;2022-09-09T17:28:24;21.63;;;7.73;;
5349;SDS011;2697;42.144;24.794;2022-09-09T17:30:54;33.37;;;6.90;;
5349;SDS011;2697;42.144;24.794;2022-09-09T17:33:20;23.87;;;7.63;;